DEDEA EDLW-ZZZZ

Flight info

Callsign DEDEA
Flight time N/A
Altitude
Route
Aircraft DA40

Departure

Time 2026-05-06 14:23
Airport Dortmund Airport (EDLW)

Arrival

Time N/A
Airport ZZZZ
Time Latitude Longitude Altitude Speed Heading
2026-05-06 14:17 51.51237 7.60514 457 ft 0 kts 188°
2026-05-06 14:18 51.51235 7.60512 457 ft 2 kts 233°
2026-05-06 14:19 51.51245 7.60436 451 ft 12 kts 246°
2026-05-06 14:19 51.51194 7.60300 452 ft 16 kts 233°
2026-05-06 14:19 51.51162 7.60155 454 ft 16 kts 329°
2026-05-06 14:19 51.51236 7.60268 441 ft 19 kts 54°
2026-05-06 14:20 51.51312 7.60469 438 ft 22 kts 63°
2026-05-06 14:20 51.51386 7.60698 430 ft 24 kts 59°
2026-05-06 14:20 51.51473 7.60950 430 ft 26 kts 58°
2026-05-06 14:20 51.51547 7.61055 426 ft 9 kts 340°
2026-05-06 14:21 51.51565 7.60942 419 ft 15 kts 256°
2026-05-06 14:21 51.51534 7.60755 414 ft 18 kts 253°
2026-05-06 14:21 51.51527 7.60676 416 ft 0 kts 273°
2026-05-06 14:22 51.51529 7.60664 411 ft 4 kts 292°
2026-05-06 14:22 51.51595 7.60610 415 ft 22 kts 13°
2026-05-06 14:22 51.51740 7.60956 416 ft 66 kts 54°
2026-05-06 14:22 51.51980 7.61666 701 ft 73 kts 56°
2026-05-06 14:23 51.52240 7.62387 1020 ft 77 kts 54°
2026-05-06 14:23 51.52645 7.62734 1310 ft 78 kts 358°
2026-05-06 14:23 51.53206 7.62860 1523 ft 93 kts 12°
2026-05-06 14:23 51.53889 7.63170 1613 ft 109 kts 17°
2026-05-06 14:24 51.54615 7.63506 1770 ft 108 kts 14°
2026-05-06 14:24 51.55327 7.63339 2006 ft 107 kts 338°
2026-05-06 14:24 51.56062 7.62823 1987 ft 120 kts 339°
2026-05-06 14:24 51.56852 7.62267 2007 ft 124 kts 339°
2026-05-06 14:25 51.57659 7.61712 1993 ft 129 kts 340°
2026-05-06 14:25 51.58502 7.61168 1898 ft 134 kts 339°
2026-05-06 14:25 51.59314 7.60448 1883 ft 133 kts 328°
2026-05-06 14:25 51.60085 7.59618 1811 ft 131 kts 327°
2026-05-06 14:26 51.60803 7.58727 1669 ft 132 kts 323°
2026-05-06 14:26 51.61368 7.57910 2187 ft 65 kts 326°
2026-05-06 14:26 51.62007 7.57623 1614 ft 113 kts 40°
2026-05-06 14:26 51.61648 7.57946 1314 ft 136 kts 280°
2026-05-06 14:27 51.62027 7.56678 1296 ft 127 kts 301°
2026-05-06 14:27 51.62427 7.55557 1555 ft 109 kts 307°
2026-05-06 14:27 51.62913 7.54605 1493 ft 120 kts 331°
2026-05-06 14:27 51.63658 7.54047 1552 ft 115 kts 338°
2026-05-06 14:28 51.64293 7.53245 1582 ft 121 kts 308°
2026-05-06 14:28 51.64508 7.51884 1574 ft 126 kts 283°
2026-05-06 14:28 51.64592 7.50519 1682 ft 124 kts 279°
2026-05-06 14:28 51.64624 7.49116 1681 ft 127 kts 274°
2026-05-06 14:29 51.64581 7.47698 1710 ft 126 kts 269°
2026-05-06 14:29 51.64470 7.46297 1726 ft 127 kts 264°
2026-05-06 14:29 51.64372 7.44874 1727 ft 126 kts 271°
2026-05-06 14:29 51.64671 7.43601 1684 ft 124 kts 318°
2026-05-06 14:30 51.65381 7.43089 1877 ft 108 kts
2026-05-06 14:30 51.66135 7.43271 2015 ft 111 kts
2026-05-06 14:30 51.66914 7.43255 2078 ft 115 kts 359°
2026-05-06 14:30 51.67704 7.43046 2151 ft 114 kts 345°
2026-05-06 14:31 51.68465 7.42686 2167 ft 116 kts 347°
2026-05-06 14:31 51.69234 7.42254 2179 ft 117 kts 340°
2026-05-06 14:31 51.69971 7.41709 2194 ft 117 kts 336°
2026-05-06 14:31 51.70672 7.41007 2210 ft 119 kts 329°
2026-05-06 14:32 51.71316 7.40175 2246 ft 120 kts 321°
2026-05-06 14:32 51.71870 7.39127 2235 ft 124 kts 312°
2026-05-06 14:32 51.72290 7.37937 2289 ft 122 kts 303°
2026-05-06 14:32 51.72800 7.36779 2198 ft 130 kts 306°
2026-05-06 14:33 51.73158 7.35523 2404 ft 119 kts 292°
2026-05-06 14:33 51.73395 7.34205 2374 ft 125 kts 297°
2026-05-06 14:33 51.74018 7.33271 2112 ft 131 kts 348°
2026-05-06 14:33 51.74852 7.33741 1928 ft 129 kts 39°
2026-05-06 14:34 51.75496 7.34575 1949 ft 112 kts 35°
2026-05-06 14:34 51.76154 7.35257 1863 ft 114 kts 37°
2026-05-06 14:34 51.76731 7.36134 1812 ft 116 kts 41°
2026-05-06 14:34 51.77280 7.37101 1719 ft 118 kts 48°